<?xml version="1.0" encoding="UTF-8" standalone="no" ?>
<gpx xmlns="http://www.topografix.com/GPX/1/1" xmlns:xsi="http://www.w3.org/2001/XMLSchema-instance" xsi:schemaLocation="http://www.topografix.com/GPX/1/1 http://www.topografix.com/GPX/1/1/gpx.xsd" version="1.1" creator="VisuGPX - https://www.visugpx.com">
  <metadata>
    <name>Traces DPT 33</name>
    <desc><![CDATA[Total: 12.2km]]></desc>
  </metadata>
  <trk>
    <name><![CDATA[track]]></name>
    <extensions>
      <line xmlns="http://www.topografix.com/GPX/gpx_style/0/2">
        <color>00FF00</color>
        <width>4</width>
      </line>
    </extensions>
    <trkseg>
      <trkpt lat="44.73443" lon="-0.26155">
        <ele>56</ele>
        <time>2020-03-12T08:31:57Z</time>
      </trkpt>
      <trkpt lat="44.73448" lon="-0.26143">
        <ele>56</ele>
        <time>2020-03-12T08:32:20Z</time>
      </trkpt>
      <trkpt lat="44.73451" lon="-0.26115">
        <ele>55</ele>
        <time>2020-03-12T08:32:55Z</time>
      </trkpt>
      <trkpt lat="44.73444" lon="-0.26021">
        <ele>58</ele>
        <time>2020-03-12T08:33:49Z</time>
      </trkpt>
      <trkpt lat="44.73471" lon="-0.2584">
        <ele>66</ele>
        <time>2020-03-12T08:35:33Z</time>
      </trkpt>
      <trkpt lat="44.7347" lon="-0.25804">
        <ele>67</ele>
        <time>2020-03-12T08:35:51Z</time>
      </trkpt>
      <trkpt lat="44.73477" lon="-0.25763">
        <ele>67</ele>
        <time>2020-03-12T08:36:13Z</time>
      </trkpt>
      <trkpt lat="44.73466" lon="-0.25725">
        <ele>68</ele>
        <time>2020-03-12T08:36:42Z</time>
      </trkpt>
      <trkpt lat="44.7346" lon="-0.2566">
        <ele>69</ele>
        <time>2020-03-12T08:37:15Z</time>
      </trkpt>
      <trkpt lat="44.73462" lon="-0.25626">
        <ele>69</ele>
        <time>2020-03-12T08:37:38Z</time>
      </trkpt>
      <trkpt lat="44.73459" lon="-0.25513">
        <ele>70</ele>
        <time>2020-03-12T08:38:38Z</time>
      </trkpt>
      <trkpt lat="44.73448" lon="-0.25443">
        <ele>71</ele>
        <time>2020-03-12T08:39:18Z</time>
      </trkpt>
      <trkpt lat="44.73438" lon="-0.25404">
        <ele>71</ele>
        <time>2020-03-12T08:39:37Z</time>
      </trkpt>
      <trkpt lat="44.73428" lon="-0.2538">
        <ele>71</ele>
        <time>2020-03-12T08:39:52Z</time>
      </trkpt>
      <trkpt lat="44.7343" lon="-0.25365">
        <ele>71</ele>
        <time>2020-03-12T08:39:59Z</time>
      </trkpt>
      <trkpt lat="44.73448" lon="-0.25351">
        <ele>72</ele>
        <time>2020-03-12T08:40:15Z</time>
      </trkpt>
      <trkpt lat="44.73484" lon="-0.25303">
        <ele>72</ele>
        <time>2020-03-12T08:40:53Z</time>
      </trkpt>
      <trkpt lat="44.7358" lon="-0.25233">
        <ele>74</ele>
        <time>2020-03-12T08:42:20Z</time>
      </trkpt>
      <trkpt lat="44.73639" lon="-0.25165">
        <ele>77</ele>
        <time>2020-03-12T08:43:14Z</time>
      </trkpt>
      <trkpt lat="44.73704" lon="-0.2514">
        <ele>79</ele>
        <time>2020-03-12T08:43:59Z</time>
      </trkpt>
      <trkpt lat="44.73714" lon="-0.25123">
        <ele>80</ele>
        <time>2020-03-12T08:44:14Z</time>
      </trkpt>
      <trkpt lat="44.73725" lon="-0.25089">
        <ele>82</ele>
        <time>2020-03-12T08:44:34Z</time>
      </trkpt>
      <trkpt lat="44.73724" lon="-0.25062">
        <ele>82</ele>
        <time>2020-03-12T08:44:51Z</time>
      </trkpt>
      <trkpt lat="44.73737" lon="-0.24995">
        <ele>84</ele>
        <time>2020-03-12T08:45:29Z</time>
      </trkpt>
      <trkpt lat="44.73747" lon="-0.24815">
        <ele>89</ele>
        <time>2020-03-12T08:47:01Z</time>
      </trkpt>
      <trkpt lat="44.73763" lon="-0.24748">
        <ele>92</ele>
        <time>2020-03-12T08:47:40Z</time>
      </trkpt>
      <trkpt lat="44.73774" lon="-0.24614">
        <ele>96</ele>
        <time>2020-03-12T08:48:50Z</time>
      </trkpt>
      <trkpt lat="44.73778" lon="-0.246">
        <ele>96</ele>
        <time>2020-03-12T08:48:58Z</time>
      </trkpt>
      <trkpt lat="44.7378" lon="-0.24537">
        <ele>99</ele>
        <time>2020-03-12T08:49:31Z</time>
      </trkpt>
      <trkpt lat="44.73783" lon="-0.24522">
        <ele>99</ele>
        <time>2020-03-12T08:49:40Z</time>
      </trkpt>
      <trkpt lat="44.73781" lon="-0.24501">
        <ele>99</ele>
        <time>2020-03-12T08:49:49Z</time>
      </trkpt>
      <trkpt lat="44.73789" lon="-0.2446">
        <ele>100</ele>
        <time>2020-03-12T08:50:14Z</time>
      </trkpt>
      <trkpt lat="44.738" lon="-0.24445">
        <ele>101</ele>
        <time>2020-03-12T08:50:25Z</time>
      </trkpt>
      <trkpt lat="44.73846" lon="-0.24409">
        <ele>103</ele>
        <time>2020-03-12T08:51:06Z</time>
      </trkpt>
      <trkpt lat="44.7386" lon="-0.24359">
        <ele>104</ele>
        <time>2020-03-12T08:51:33Z</time>
      </trkpt>
      <trkpt lat="44.73884" lon="-0.2422">
        <ele>107</ele>
        <time>2020-03-12T08:52:55Z</time>
      </trkpt>
      <trkpt lat="44.73887" lon="-0.24185">
        <ele>107</ele>
        <time>2020-03-12T08:53:12Z</time>
      </trkpt>
      <trkpt lat="44.739" lon="-0.24145">
        <ele>108</ele>
        <time>2020-03-12T08:53:37Z</time>
      </trkpt>
      <trkpt lat="44.7391" lon="-0.2414">
        <ele>109</ele>
        <time>2020-03-12T08:53:47Z</time>
      </trkpt>
      <trkpt lat="44.73941" lon="-0.24156">
        <ele>110</ele>
        <time>2020-03-12T08:54:08Z</time>
      </trkpt>
      <trkpt lat="44.73996" lon="-0.24162">
        <ele>112</ele>
        <time>2020-03-12T08:55:17Z</time>
      </trkpt>
      <trkpt lat="44.74007" lon="-0.24148">
        <ele>112</ele>
        <time>2020-03-12T08:55:27Z</time>
      </trkpt>
      <trkpt lat="44.74023" lon="-0.24101">
        <ele>112</ele>
        <time>2020-03-12T08:55:54Z</time>
      </trkpt>
      <trkpt lat="44.74031" lon="-0.24045">
        <ele>112</ele>
        <time>2020-03-12T08:56:27Z</time>
      </trkpt>
      <trkpt lat="44.74046" lon="-0.24017">
        <ele>112</ele>
        <time>2020-03-12T08:56:47Z</time>
      </trkpt>
      <trkpt lat="44.74046" lon="-0.23987">
        <ele>112</ele>
        <time>2020-03-12T08:57:00Z</time>
      </trkpt>
      <trkpt lat="44.74057" lon="-0.23955">
        <ele>112</ele>
        <time>2020-03-12T08:57:20Z</time>
      </trkpt>
      <trkpt lat="44.7406" lon="-0.23861">
        <ele>112</ele>
        <time>2020-03-12T08:58:11Z</time>
      </trkpt>
      <trkpt lat="44.74044" lon="-0.23826">
        <ele>112</ele>
        <time>2020-03-12T08:58:40Z</time>
      </trkpt>
      <trkpt lat="44.74074" lon="-0.23711">
        <ele>109</ele>
        <time>2020-03-12T09:03:33Z</time>
      </trkpt>
      <trkpt lat="44.74089" lon="-0.23683">
        <ele>105</ele>
        <time>2020-03-12T09:03:54Z</time>
      </trkpt>
      <trkpt lat="44.74104" lon="-0.23624">
        <ele>101</ele>
        <time>2020-03-12T09:04:30Z</time>
      </trkpt>
      <trkpt lat="44.74126" lon="-0.23594">
        <ele>98</ele>
        <time>2020-03-12T09:05:01Z</time>
      </trkpt>
      <trkpt lat="44.74146" lon="-0.23554">
        <ele>95</ele>
        <time>2020-03-12T09:05:26Z</time>
      </trkpt>
      <trkpt lat="44.74168" lon="-0.23531">
        <ele>94</ele>
        <time>2020-03-12T09:05:48Z</time>
      </trkpt>
      <trkpt lat="44.74167" lon="-0.2351">
        <ele>95</ele>
        <time>2020-03-12T09:06:00Z</time>
      </trkpt>
      <trkpt lat="44.74182" lon="-0.23498">
        <ele>93</ele>
        <time>2020-03-12T09:06:39Z</time>
      </trkpt>
      <trkpt lat="44.74193" lon="-0.23475">
        <ele>93</ele>
        <time>2020-03-12T09:06:54Z</time>
      </trkpt>
      <trkpt lat="44.74212" lon="-0.23451">
        <ele>92</ele>
        <time>2020-03-12T09:07:17Z</time>
      </trkpt>
      <trkpt lat="44.7426" lon="-0.23406">
        <ele>88</ele>
        <time>2020-03-12T09:08:00Z</time>
      </trkpt>
      <trkpt lat="44.74286" lon="-0.2337">
        <ele>86</ele>
        <time>2020-03-12T09:08:29Z</time>
      </trkpt>
      <trkpt lat="44.74308" lon="-0.23322">
        <ele>85</ele>
        <time>2020-03-12T09:09:01Z</time>
      </trkpt>
      <trkpt lat="44.74351" lon="-0.2326">
        <ele>82</ele>
        <time>2020-03-12T09:09:47Z</time>
      </trkpt>
      <trkpt lat="44.74365" lon="-0.23229">
        <ele>82</ele>
        <time>2020-03-12T09:10:08Z</time>
      </trkpt>
      <trkpt lat="44.74389" lon="-0.2313">
        <ele>78</ele>
        <time>2020-03-12T09:11:00Z</time>
      </trkpt>
      <trkpt lat="44.74412" lon="-0.23008">
        <ele>73</ele>
        <time>2020-03-12T09:11:59Z</time>
      </trkpt>
      <trkpt lat="44.7443" lon="-0.22933">
        <ele>72</ele>
        <time>2020-03-12T09:12:40Z</time>
      </trkpt>
      <trkpt lat="44.74441" lon="-0.22775">
        <ele>73</ele>
        <time>2020-03-12T09:14:03Z</time>
      </trkpt>
      <trkpt lat="44.74423" lon="-0.2261">
        <ele>76</ele>
        <time>2020-03-12T09:15:33Z</time>
      </trkpt>
      <trkpt lat="44.74426" lon="-0.22567">
        <ele>75</ele>
        <time>2020-03-12T09:15:59Z</time>
      </trkpt>
      <trkpt lat="44.74447" lon="-0.22561">
        <ele>76</ele>
        <time>2020-03-12T09:16:16Z</time>
      </trkpt>
      <trkpt lat="44.74492" lon="-0.22492">
        <ele>74</ele>
        <time>2020-03-12T09:17:10Z</time>
      </trkpt>
      <trkpt lat="44.74546" lon="-0.22343">
        <ele>72</ele>
        <time>2020-03-12T09:18:48Z</time>
      </trkpt>
      <trkpt lat="44.74552" lon="-0.22308">
        <ele>71</ele>
        <time>2020-03-12T09:19:10Z</time>
      </trkpt>
      <trkpt lat="44.74575" lon="-0.22232">
        <ele>68</ele>
        <time>2020-03-12T09:20:02Z</time>
      </trkpt>
      <trkpt lat="44.74585" lon="-0.22217">
        <ele>68</ele>
        <time>2020-03-12T09:20:30Z</time>
      </trkpt>
      <trkpt lat="44.7459" lon="-0.22178">
        <ele>65</ele>
        <time>2020-03-12T09:21:07Z</time>
      </trkpt>
      <trkpt lat="44.74588" lon="-0.22159">
        <ele>64</ele>
        <time>2020-03-12T09:21:26Z</time>
      </trkpt>
      <trkpt lat="44.74608" lon="-0.22152">
        <ele>63</ele>
        <time>2020-03-12T09:21:47Z</time>
      </trkpt>
      <trkpt lat="44.74665" lon="-0.2215">
        <ele>63</ele>
        <time>2020-03-12T09:22:41Z</time>
      </trkpt>
      <trkpt lat="44.74689" lon="-0.22142">
        <ele>63</ele>
        <time>2020-03-12T09:23:03Z</time>
      </trkpt>
      <trkpt lat="44.74697" lon="-0.22069">
        <ele>57</ele>
        <time>2020-03-12T09:23:45Z</time>
      </trkpt>
      <trkpt lat="44.7471" lon="-0.22047">
        <ele>56</ele>
        <time>2020-03-12T09:24:02Z</time>
      </trkpt>
      <trkpt lat="44.74718" lon="-0.22041">
        <ele>55</ele>
        <time>2020-03-12T09:24:16Z</time>
      </trkpt>
      <trkpt lat="44.7472" lon="-0.22027">
        <ele>54</ele>
        <time>2020-03-12T09:24:30Z</time>
      </trkpt>
      <trkpt lat="44.74713" lon="-0.21987">
        <ele>53</ele>
        <time>2020-03-12T09:24:49Z</time>
      </trkpt>
      <trkpt lat="44.74713" lon="-0.21951">
        <ele>54</ele>
        <time>2020-03-12T09:25:16Z</time>
      </trkpt>
      <trkpt lat="44.74719" lon="-0.21925">
        <ele>55</ele>
        <time>2020-03-12T09:25:37Z</time>
      </trkpt>
      <trkpt lat="44.74742" lon="-0.2187">
        <ele>58</ele>
        <time>2020-03-12T09:26:24Z</time>
      </trkpt>
      <trkpt lat="44.74751" lon="-0.21839">
        <ele>60</ele>
        <time>2020-03-12T09:26:55Z</time>
      </trkpt>
      <trkpt lat="44.74775" lon="-0.21781">
        <ele>64</ele>
        <time>2020-03-12T09:27:36Z</time>
      </trkpt>
      <trkpt lat="44.74791" lon="-0.21709">
        <ele>67</ele>
        <time>2020-03-12T09:28:29Z</time>
      </trkpt>
      <trkpt lat="44.74789" lon="-0.21703">
        <ele>67</ele>
        <time>2020-03-12T09:28:32Z</time>
      </trkpt>
      <trkpt lat="44.74793" lon="-0.21699">
        <ele>67</ele>
        <time>2020-03-12T09:29:54Z</time>
      </trkpt>
      <trkpt lat="44.74785" lon="-0.21703">
        <ele>67</ele>
        <time>2020-03-12T09:31:09Z</time>
      </trkpt>
      <trkpt lat="44.74789" lon="-0.217">
        <ele>67</ele>
        <time>2020-03-12T09:31:31Z</time>
      </trkpt>
      <trkpt lat="44.74782" lon="-0.21689">
        <ele>67</ele>
        <time>2020-03-12T09:32:54Z</time>
      </trkpt>
      <trkpt lat="44.74739" lon="-0.21658">
        <ele>67</ele>
        <time>2020-03-12T09:33:30Z</time>
      </trkpt>
      <trkpt lat="44.74718" lon="-0.21655">
        <ele>66</ele>
        <time>2020-03-12T09:33:46Z</time>
      </trkpt>
      <trkpt lat="44.74646" lon="-0.21658">
        <ele>65</ele>
        <time>2020-03-12T09:34:39Z</time>
      </trkpt>
      <trkpt lat="44.74543" lon="-0.2161">
        <ele>63</ele>
        <time>2020-03-12T09:36:04Z</time>
      </trkpt>
      <trkpt lat="44.74536" lon="-0.21612">
        <ele>63</ele>
        <time>2020-03-12T09:36:18Z</time>
      </trkpt>
      <trkpt lat="44.745" lon="-0.21601">
        <ele>63</ele>
        <time>2020-03-12T09:36:46Z</time>
      </trkpt>
      <trkpt lat="44.74424" lon="-0.21601">
        <ele>64</ele>
        <time>2020-03-12T09:37:34Z</time>
      </trkpt>
      <trkpt lat="44.7428" lon="-0.21622">
        <ele>70</ele>
        <time>2020-03-12T09:39:19Z</time>
      </trkpt>
      <trkpt lat="44.741" lon="-0.21685">
        <ele>68</ele>
        <time>2020-03-12T09:41:36Z</time>
      </trkpt>
      <trkpt lat="44.74049" lon="-0.21716">
        <ele>67</ele>
        <time>2020-03-12T09:42:25Z</time>
      </trkpt>
      <trkpt lat="44.74039" lon="-0.2171">
        <ele>67</ele>
        <time>2020-03-12T09:42:35Z</time>
      </trkpt>
      <trkpt lat="44.74013" lon="-0.21675">
        <ele>68</ele>
        <time>2020-03-12T09:43:04Z</time>
      </trkpt>
      <trkpt lat="44.73989" lon="-0.21656">
        <ele>67</ele>
        <time>2020-03-12T09:43:22Z</time>
      </trkpt>
      <trkpt lat="44.73943" lon="-0.21646">
        <ele>68</ele>
        <time>2020-03-12T09:43:55Z</time>
      </trkpt>
      <trkpt lat="44.73927" lon="-0.21654">
        <ele>69</ele>
        <time>2020-03-12T09:44:07Z</time>
      </trkpt>
      <trkpt lat="44.73917" lon="-0.21668">
        <ele>69</ele>
        <time>2020-03-12T09:44:24Z</time>
      </trkpt>
      <trkpt lat="44.73875" lon="-0.21695">
        <ele>70</ele>
        <time>2020-03-12T09:45:04Z</time>
      </trkpt>
      <trkpt lat="44.73856" lon="-0.21719">
        <ele>70</ele>
        <time>2020-03-12T09:45:22Z</time>
      </trkpt>
      <trkpt lat="44.73837" lon="-0.21764">
        <ele>69</ele>
        <time>2020-03-12T09:45:49Z</time>
      </trkpt>
      <trkpt lat="44.73822" lon="-0.21817">
        <ele>66</ele>
        <time>2020-03-12T09:46:20Z</time>
      </trkpt>
      <trkpt lat="44.73826" lon="-0.21829">
        <ele>66</ele>
        <time>2020-03-12T09:46:50Z</time>
      </trkpt>
      <trkpt lat="44.73816" lon="-0.21843">
        <ele>65</ele>
        <time>2020-03-12T09:47:02Z</time>
      </trkpt>
      <trkpt lat="44.73757" lon="-0.2185">
        <ele>67</ele>
        <time>2020-03-12T09:47:50Z</time>
      </trkpt>
      <trkpt lat="44.73698" lon="-0.21892">
        <ele>70</ele>
        <time>2020-03-12T09:48:41Z</time>
      </trkpt>
      <trkpt lat="44.73646" lon="-0.21919">
        <ele>72</ele>
        <time>2020-03-12T09:49:24Z</time>
      </trkpt>
      <trkpt lat="44.73646" lon="-0.21975">
        <ele>71</ele>
        <time>2020-03-12T09:50:00Z</time>
      </trkpt>
      <trkpt lat="44.73653" lon="-0.22002">
        <ele>70</ele>
        <time>2020-03-12T09:50:28Z</time>
      </trkpt>
      <trkpt lat="44.73654" lon="-0.22017">
        <ele>70</ele>
        <time>2020-03-12T09:50:38Z</time>
      </trkpt>
      <trkpt lat="44.73664" lon="-0.22039">
        <ele>70</ele>
        <time>2020-03-12T09:50:57Z</time>
      </trkpt>
      <trkpt lat="44.73661" lon="-0.22066">
        <ele>69</ele>
        <time>2020-03-12T09:51:17Z</time>
      </trkpt>
      <trkpt lat="44.73652" lon="-0.22072">
        <ele>70</ele>
        <time>2020-03-12T09:51:29Z</time>
      </trkpt>
      <trkpt lat="44.73637" lon="-0.22072">
        <ele>70</ele>
        <time>2020-03-12T09:51:45Z</time>
      </trkpt>
      <trkpt lat="44.73601" lon="-0.22093">
        <ele>71</ele>
        <time>2020-03-12T09:52:30Z</time>
      </trkpt>
      <trkpt lat="44.73581" lon="-0.22098">
        <ele>72</ele>
        <time>2020-03-12T09:52:48Z</time>
      </trkpt>
      <trkpt lat="44.7349" lon="-0.22185">
        <ele>77</ele>
        <time>2020-03-12T09:54:28Z</time>
      </trkpt>
      <trkpt lat="44.73483" lon="-0.22203">
        <ele>77</ele>
        <time>2020-03-12T09:54:46Z</time>
      </trkpt>
      <trkpt lat="44.73496" lon="-0.22215">
        <ele>76</ele>
        <time>2020-03-12T09:55:03Z</time>
      </trkpt>
      <trkpt lat="44.73492" lon="-0.2222">
        <ele>77</ele>
        <time>2020-03-12T10:02:17Z</time>
      </trkpt>
      <trkpt lat="44.73482" lon="-0.2229">
        <ele>76</ele>
        <time>2020-03-12T10:03:07Z</time>
      </trkpt>
      <trkpt lat="44.73483" lon="-0.22337">
        <ele>77</ele>
        <time>2020-03-12T10:03:38Z</time>
      </trkpt>
      <trkpt lat="44.73472" lon="-0.22413">
        <ele>78</ele>
        <time>2020-03-12T10:04:30Z</time>
      </trkpt>
      <trkpt lat="44.73448" lon="-0.22477">
        <ele>81</ele>
        <time>2020-03-12T10:05:13Z</time>
      </trkpt>
      <trkpt lat="44.73427" lon="-0.22509">
        <ele>83</ele>
        <time>2020-03-12T10:05:47Z</time>
      </trkpt>
      <trkpt lat="44.73347" lon="-0.2253">
        <ele>89</ele>
        <time>2020-03-12T10:06:59Z</time>
      </trkpt>
      <trkpt lat="44.73334" lon="-0.2254">
        <ele>90</ele>
        <time>2020-03-12T10:07:22Z</time>
      </trkpt>
      <trkpt lat="44.73298" lon="-0.22518">
        <ele>92</ele>
        <time>2020-03-12T10:08:09Z</time>
      </trkpt>
      <trkpt lat="44.73287" lon="-0.22504">
        <ele>92</ele>
        <time>2020-03-12T10:08:19Z</time>
      </trkpt>
      <trkpt lat="44.73274" lon="-0.22499">
        <ele>93</ele>
        <time>2020-03-12T10:08:28Z</time>
      </trkpt>
      <trkpt lat="44.73258" lon="-0.225">
        <ele>94</ele>
        <time>2020-03-12T10:08:41Z</time>
      </trkpt>
      <trkpt lat="44.73227" lon="-0.22526">
        <ele>98</ele>
        <time>2020-03-12T10:09:12Z</time>
      </trkpt>
      <trkpt lat="44.73218" lon="-0.22529">
        <ele>98</ele>
        <time>2020-03-12T10:09:31Z</time>
      </trkpt>
      <trkpt lat="44.73211" lon="-0.22518">
        <ele>97</ele>
        <time>2020-03-12T10:09:40Z</time>
      </trkpt>
      <trkpt lat="44.73195" lon="-0.22449">
        <ele>92</ele>
        <time>2020-03-12T10:10:25Z</time>
      </trkpt>
      <trkpt lat="44.73189" lon="-0.22438">
        <ele>91</ele>
        <time>2020-03-12T10:10:32Z</time>
      </trkpt>
      <trkpt lat="44.7317" lon="-0.22431">
        <ele>91</ele>
        <time>2020-03-12T10:10:46Z</time>
      </trkpt>
      <trkpt lat="44.7314" lon="-0.22439">
        <ele>90</ele>
        <time>2020-03-12T10:11:05Z</time>
      </trkpt>
      <trkpt lat="44.7311" lon="-0.22463">
        <ele>90</ele>
        <time>2020-03-12T10:11:45Z</time>
      </trkpt>
      <trkpt lat="44.73098" lon="-0.2248">
        <ele>91</ele>
        <time>2020-03-12T10:13:13Z</time>
      </trkpt>
      <trkpt lat="44.73089" lon="-0.22504">
        <ele>92</ele>
        <time>2020-03-12T10:13:34Z</time>
      </trkpt>
      <trkpt lat="44.73077" lon="-0.22561">
        <ele>95</ele>
        <time>2020-03-12T10:14:14Z</time>
      </trkpt>
      <trkpt lat="44.73069" lon="-0.22578">
        <ele>97</ele>
        <time>2020-03-12T10:14:25Z</time>
      </trkpt>
      <trkpt lat="44.73056" lon="-0.22589">
        <ele>97</ele>
        <time>2020-03-12T10:14:43Z</time>
      </trkpt>
      <trkpt lat="44.73017" lon="-0.22588">
        <ele>98</ele>
        <time>2020-03-12T10:15:16Z</time>
      </trkpt>
      <trkpt lat="44.73008" lon="-0.22593">
        <ele>99</ele>
        <time>2020-03-12T10:15:23Z</time>
      </trkpt>
      <trkpt lat="44.72983" lon="-0.22622">
        <ele>103</ele>
        <time>2020-03-12T10:15:49Z</time>
      </trkpt>
      <trkpt lat="44.72963" lon="-0.22662">
        <ele>105</ele>
        <time>2020-03-12T10:16:23Z</time>
      </trkpt>
      <trkpt lat="44.72949" lon="-0.22644">
        <ele>104</ele>
        <time>2020-03-12T10:16:50Z</time>
      </trkpt>
      <trkpt lat="44.72942" lon="-0.22626">
        <ele>104</ele>
        <time>2020-03-12T10:17:03Z</time>
      </trkpt>
      <trkpt lat="44.72927" lon="-0.22606">
        <ele>103</ele>
        <time>2020-03-12T10:17:19Z</time>
      </trkpt>
      <trkpt lat="44.72916" lon="-0.2258">
        <ele>102</ele>
        <time>2020-03-12T10:17:37Z</time>
      </trkpt>
      <trkpt lat="44.72904" lon="-0.22563">
        <ele>102</ele>
        <time>2020-03-12T10:17:47Z</time>
      </trkpt>
      <trkpt lat="44.72891" lon="-0.22557">
        <ele>102</ele>
        <time>2020-03-12T10:17:55Z</time>
      </trkpt>
      <trkpt lat="44.72874" lon="-0.22539">
        <ele>100</ele>
        <time>2020-03-12T10:18:17Z</time>
      </trkpt>
      <trkpt lat="44.72861" lon="-0.22533">
        <ele>99</ele>
        <time>2020-03-12T10:18:40Z</time>
      </trkpt>
      <trkpt lat="44.72856" lon="-0.22521">
        <ele>99</ele>
        <time>2020-03-12T10:18:52Z</time>
      </trkpt>
      <trkpt lat="44.7284" lon="-0.22501">
        <ele>98</ele>
        <time>2020-03-12T10:19:16Z</time>
      </trkpt>
      <trkpt lat="44.72832" lon="-0.22483">
        <ele>97</ele>
        <time>2020-03-12T10:19:31Z</time>
      </trkpt>
      <trkpt lat="44.72791" lon="-0.22439">
        <ele>96</ele>
        <time>2020-03-12T10:20:11Z</time>
      </trkpt>
      <trkpt lat="44.72777" lon="-0.22433">
        <ele>96</ele>
        <time>2020-03-12T10:20:26Z</time>
      </trkpt>
      <trkpt lat="44.72755" lon="-0.22415">
        <ele>95</ele>
        <time>2020-03-12T10:20:45Z</time>
      </trkpt>
      <trkpt lat="44.72724" lon="-0.22372">
        <ele>94</ele>
        <time>2020-03-12T10:21:32Z</time>
      </trkpt>
      <trkpt lat="44.72702" lon="-0.22351">
        <ele>93</ele>
        <time>2020-03-12T10:21:55Z</time>
      </trkpt>
      <trkpt lat="44.72655" lon="-0.22287">
        <ele>92</ele>
        <time>2020-03-12T10:22:54Z</time>
      </trkpt>
      <trkpt lat="44.72645" lon="-0.22282">
        <ele>92</ele>
        <time>2020-03-12T10:23:07Z</time>
      </trkpt>
      <trkpt lat="44.72635" lon="-0.22283">
        <ele>92</ele>
        <time>2020-03-12T10:23:16Z</time>
      </trkpt>
      <trkpt lat="44.72634" lon="-0.22291">
        <ele>92</ele>
        <time>2020-03-12T10:23:25Z</time>
      </trkpt>
      <trkpt lat="44.72652" lon="-0.22336">
        <ele>91</ele>
        <time>2020-03-12T10:23:55Z</time>
      </trkpt>
      <trkpt lat="44.72667" lon="-0.22396">
        <ele>91</ele>
        <time>2020-03-12T10:24:29Z</time>
      </trkpt>
      <trkpt lat="44.72672" lon="-0.22433">
        <ele>90</ele>
        <time>2020-03-12T10:24:50Z</time>
      </trkpt>
      <trkpt lat="44.72671" lon="-0.22489">
        <ele>90</ele>
        <time>2020-03-12T10:25:22Z</time>
      </trkpt>
      <trkpt lat="44.72678" lon="-0.22541">
        <ele>89</ele>
        <time>2020-03-12T10:25:48Z</time>
      </trkpt>
      <trkpt lat="44.72681" lon="-0.22613">
        <ele>87</ele>
        <time>2020-03-12T10:26:31Z</time>
      </trkpt>
      <trkpt lat="44.72675" lon="-0.22625">
        <ele>87</ele>
        <time>2020-03-12T10:26:43Z</time>
      </trkpt>
      <trkpt lat="44.7264" lon="-0.22637">
        <ele>84</ele>
        <time>2020-03-12T10:27:15Z</time>
      </trkpt>
      <trkpt lat="44.72601" lon="-0.22657">
        <ele>81</ele>
        <time>2020-03-12T10:27:44Z</time>
      </trkpt>
      <trkpt lat="44.7258" lon="-0.2266">
        <ele>80</ele>
        <time>2020-03-12T10:28:01Z</time>
      </trkpt>
      <trkpt lat="44.72529" lon="-0.22684">
        <ele>77</ele>
        <time>2020-03-12T10:28:53Z</time>
      </trkpt>
      <trkpt lat="44.72518" lon="-0.22714">
        <ele>77</ele>
        <time>2020-03-12T10:29:18Z</time>
      </trkpt>
      <trkpt lat="44.72513" lon="-0.2275">
        <ele>76</ele>
        <time>2020-03-12T10:29:38Z</time>
      </trkpt>
      <trkpt lat="44.72496" lon="-0.22797">
        <ele>76</ele>
        <time>2020-03-12T10:30:14Z</time>
      </trkpt>
      <trkpt lat="44.72486" lon="-0.22813">
        <ele>76</ele>
        <time>2020-03-12T10:30:29Z</time>
      </trkpt>
      <trkpt lat="44.72378" lon="-0.22925">
        <ele>73</ele>
        <time>2020-03-12T10:32:41Z</time>
      </trkpt>
      <trkpt lat="44.7238" lon="-0.22938">
        <ele>74</ele>
        <time>2020-03-12T10:32:59Z</time>
      </trkpt>
      <trkpt lat="44.72376" lon="-0.22936">
        <ele>73</ele>
        <time>2020-03-12T10:33:18Z</time>
      </trkpt>
      <trkpt lat="44.72378" lon="-0.22931">
        <ele>73</ele>
        <time>2020-03-12T10:33:46Z</time>
      </trkpt>
      <trkpt lat="44.72375" lon="-0.22936">
        <ele>73</ele>
        <time>2020-03-12T10:34:07Z</time>
      </trkpt>
      <trkpt lat="44.72367" lon="-0.2294">
        <ele>73</ele>
        <time>2020-03-12T10:34:29Z</time>
      </trkpt>
      <trkpt lat="44.7237" lon="-0.22936">
        <ele>73</ele>
        <time>2020-03-12T10:35:00Z</time>
      </trkpt>
      <trkpt lat="44.72379" lon="-0.22937">
        <ele>73</ele>
        <time>2020-03-12T10:35:23Z</time>
      </trkpt>
      <trkpt lat="44.72368" lon="-0.22989">
        <ele>73</ele>
        <time>2020-03-12T10:39:03Z</time>
      </trkpt>
      <trkpt lat="44.72374" lon="-0.23047">
        <ele>75</ele>
        <time>2020-03-12T10:39:41Z</time>
      </trkpt>
      <trkpt lat="44.72362" lon="-0.2307">
        <ele>75</ele>
        <time>2020-03-12T10:40:05Z</time>
      </trkpt>
      <trkpt lat="44.72356" lon="-0.2307">
        <ele>75</ele>
        <time>2020-03-12T10:40:09Z</time>
      </trkpt>
      <trkpt lat="44.72335" lon="-0.23088">
        <ele>75</ele>
        <time>2020-03-12T10:40:27Z</time>
      </trkpt>
      <trkpt lat="44.72312" lon="-0.23118">
        <ele>76</ele>
        <time>2020-03-12T10:40:53Z</time>
      </trkpt>
      <trkpt lat="44.7229" lon="-0.23159">
        <ele>79</ele>
        <time>2020-03-12T10:41:21Z</time>
      </trkpt>
      <trkpt lat="44.72213" lon="-0.23268">
        <ele>86</ele>
        <time>2020-03-12T10:42:52Z</time>
      </trkpt>
      <trkpt lat="44.72185" lon="-0.23242">
        <ele>85</ele>
        <time>2020-03-12T10:43:29Z</time>
      </trkpt>
      <trkpt lat="44.72182" lon="-0.23247">
        <ele>85</ele>
        <time>2020-03-12T10:43:43Z</time>
      </trkpt>
      <trkpt lat="44.72175" lon="-0.23235">
        <ele>84</ele>
        <time>2020-03-12T10:43:56Z</time>
      </trkpt>
      <trkpt lat="44.72057" lon="-0.23114">
        <ele>80</ele>
        <time>2020-03-12T10:45:51Z</time>
      </trkpt>
      <trkpt lat="44.72033" lon="-0.23102">
        <ele>79</ele>
        <time>2020-03-12T10:46:32Z</time>
      </trkpt>
      <trkpt lat="44.72025" lon="-0.23107">
        <ele>79</ele>
        <time>2020-03-12T10:46:58Z</time>
      </trkpt>
      <trkpt lat="44.72008" lon="-0.23106">
        <ele>78</ele>
        <time>2020-03-12T10:47:09Z</time>
      </trkpt>
      <trkpt lat="44.71944" lon="-0.23085">
        <ele>76</ele>
        <time>2020-03-12T10:48:05Z</time>
      </trkpt>
      <trkpt lat="44.71918" lon="-0.23084">
        <ele>76</ele>
        <time>2020-03-12T10:48:27Z</time>
      </trkpt>
      <trkpt lat="44.71871" lon="-0.23067">
        <ele>74</ele>
        <time>2020-03-12T10:49:10Z</time>
      </trkpt>
      <trkpt lat="44.71863" lon="-0.23093">
        <ele>74</ele>
        <time>2020-03-12T10:49:31Z</time>
      </trkpt>
      <trkpt lat="44.71866" lon="-0.23158">
        <ele>74</ele>
        <time>2020-03-12T10:50:18Z</time>
      </trkpt>
      <trkpt lat="44.71874" lon="-0.23198">
        <ele>76</ele>
        <time>2020-03-12T10:50:40Z</time>
      </trkpt>
      <trkpt lat="44.71891" lon="-0.23333">
        <ele>79</ele>
        <time>2020-03-12T10:52:04Z</time>
      </trkpt>
      <trkpt lat="44.71894" lon="-0.23401">
        <ele>79</ele>
        <time>2020-03-12T10:52:50Z</time>
      </trkpt>
      <trkpt lat="44.71902" lon="-0.23447">
        <ele>80</ele>
        <time>2020-03-12T10:53:32Z</time>
      </trkpt>
      <trkpt lat="44.71885" lon="-0.23597">
        <ele>85</ele>
        <time>2020-03-12T10:55:29Z</time>
      </trkpt>
      <trkpt lat="44.71874" lon="-0.2363">
        <ele>86</ele>
        <time>2020-03-12T10:55:53Z</time>
      </trkpt>
      <trkpt lat="44.71875" lon="-0.23666">
        <ele>87</ele>
        <time>2020-03-12T10:56:12Z</time>
      </trkpt>
      <trkpt lat="44.71868" lon="-0.23698">
        <ele>87</ele>
        <time>2020-03-12T10:56:33Z</time>
      </trkpt>
      <trkpt lat="44.71863" lon="-0.238">
        <ele>86</ele>
        <time>2020-03-12T10:57:33Z</time>
      </trkpt>
      <trkpt lat="44.71866" lon="-0.23813">
        <ele>86</ele>
        <time>2020-03-12T10:57:43Z</time>
      </trkpt>
      <trkpt lat="44.71854" lon="-0.23903">
        <ele>83</ele>
        <time>2020-03-12T10:58:38Z</time>
      </trkpt>
      <trkpt lat="44.71855" lon="-0.23932">
        <ele>83</ele>
        <time>2020-03-12T10:58:58Z</time>
      </trkpt>
      <trkpt lat="44.71863" lon="-0.23966">
        <ele>82</ele>
        <time>2020-03-12T10:59:21Z</time>
      </trkpt>
      <trkpt lat="44.71884" lon="-0.24019">
        <ele>83</ele>
        <time>2020-03-12T10:59:55Z</time>
      </trkpt>
      <trkpt lat="44.71909" lon="-0.24126">
        <ele>81</ele>
        <time>2020-03-12T11:00:58Z</time>
      </trkpt>
      <trkpt lat="44.71911" lon="-0.24187">
        <ele>80</ele>
        <time>2020-03-12T11:01:45Z</time>
      </trkpt>
      <trkpt lat="44.71886" lon="-0.24266">
        <ele>77</ele>
        <time>2020-03-12T11:02:42Z</time>
      </trkpt>
      <trkpt lat="44.71879" lon="-0.24277">
        <ele>76</ele>
        <time>2020-03-12T11:02:50Z</time>
      </trkpt>
      <trkpt lat="44.71876" lon="-0.24297">
        <ele>76</ele>
        <time>2020-03-12T11:03:01Z</time>
      </trkpt>
      <trkpt lat="44.71858" lon="-0.2435">
        <ele>74</ele>
        <time>2020-03-12T11:03:35Z</time>
      </trkpt>
      <trkpt lat="44.71801" lon="-0.24578">
        <ele>69</ele>
        <time>2020-03-12T11:05:48Z</time>
      </trkpt>
      <trkpt lat="44.71782" lon="-0.24635">
        <ele>67</ele>
        <time>2020-03-12T11:06:23Z</time>
      </trkpt>
      <trkpt lat="44.71775" lon="-0.24645">
        <ele>67</ele>
        <time>2020-03-12T11:06:31Z</time>
      </trkpt>
      <trkpt lat="44.71757" lon="-0.24656">
        <ele>66</ele>
        <time>2020-03-12T11:06:46Z</time>
      </trkpt>
      <trkpt lat="44.71727" lon="-0.24666">
        <ele>64</ele>
        <time>2020-03-12T11:07:10Z</time>
      </trkpt>
      <trkpt lat="44.71706" lon="-0.24686">
        <ele>63</ele>
        <time>2020-03-12T11:07:28Z</time>
      </trkpt>
      <trkpt lat="44.71668" lon="-0.24757">
        <ele>63</ele>
        <time>2020-03-12T11:10:20Z</time>
      </trkpt>
      <trkpt lat="44.71761" lon="-0.24817">
        <ele>65</ele>
        <time>2020-03-12T11:12:33Z</time>
      </trkpt>
      <trkpt lat="44.71844" lon="-0.24898">
        <ele>67</ele>
        <time>2020-03-12T11:13:55Z</time>
      </trkpt>
      <trkpt lat="44.71922" lon="-0.24991">
        <ele>65</ele>
        <time>2020-03-12T11:15:15Z</time>
      </trkpt>
      <trkpt lat="44.71978" lon="-0.25045">
        <ele>63</ele>
        <time>2020-03-12T11:16:04Z</time>
      </trkpt>
      <trkpt lat="44.71998" lon="-0.25076">
        <ele>62</ele>
        <time>2020-03-12T11:16:28Z</time>
      </trkpt>
      <trkpt lat="44.72022" lon="-0.25124">
        <ele>59</ele>
        <time>2020-03-12T11:17:03Z</time>
      </trkpt>
      <trkpt lat="44.72038" lon="-0.25141">
        <ele>57</ele>
        <time>2020-03-12T11:17:20Z</time>
      </trkpt>
      <trkpt lat="44.72073" lon="-0.25192">
        <ele>54</ele>
        <time>2020-03-12T11:17:57Z</time>
      </trkpt>
      <trkpt lat="44.721" lon="-0.25214">
        <ele>54</ele>
        <time>2020-03-12T11:18:14Z</time>
      </trkpt>
      <trkpt lat="44.72137" lon="-0.25224">
        <ele>55</ele>
        <time>2020-03-12T11:18:48Z</time>
      </trkpt>
      <trkpt lat="44.72155" lon="-0.25234">
        <ele>56</ele>
        <time>2020-03-12T11:19:05Z</time>
      </trkpt>
      <trkpt lat="44.72164" lon="-0.2525">
        <ele>57</ele>
        <time>2020-03-12T11:19:19Z</time>
      </trkpt>
      <trkpt lat="44.72142" lon="-0.2532">
        <ele>59</ele>
        <time>2020-03-12T11:20:11Z</time>
      </trkpt>
      <trkpt lat="44.72113" lon="-0.25345">
        <ele>58</ele>
        <time>2020-03-12T11:20:41Z</time>
      </trkpt>
      <trkpt lat="44.72092" lon="-0.25354">
        <ele>57</ele>
        <time>2020-03-12T11:20:58Z</time>
      </trkpt>
      <trkpt lat="44.72069" lon="-0.25379">
        <ele>57</ele>
        <time>2020-03-12T11:21:27Z</time>
      </trkpt>
      <trkpt lat="44.72081" lon="-0.25393">
        <ele>59</ele>
        <time>2020-03-12T11:21:46Z</time>
      </trkpt>
      <trkpt lat="44.72127" lon="-0.25547">
        <ele>62</ele>
        <time>2020-03-12T11:23:30Z</time>
      </trkpt>
      <trkpt lat="44.72137" lon="-0.25562">
        <ele>63</ele>
        <time>2020-03-12T11:23:42Z</time>
      </trkpt>
      <trkpt lat="44.72148" lon="-0.25644">
        <ele>64</ele>
        <time>2020-03-12T11:24:29Z</time>
      </trkpt>
      <trkpt lat="44.72147" lon="-0.25674">
        <ele>64</ele>
        <time>2020-03-12T11:24:43Z</time>
      </trkpt>
      <trkpt lat="44.72124" lon="-0.25801">
        <ele>65</ele>
        <time>2020-03-12T11:25:56Z</time>
      </trkpt>
      <trkpt lat="44.72122" lon="-0.25852">
        <ele>64</ele>
        <time>2020-03-12T11:26:22Z</time>
      </trkpt>
      <trkpt lat="44.7213" lon="-0.25869">
        <ele>64</ele>
        <time>2020-03-12T11:26:44Z</time>
      </trkpt>
      <trkpt lat="44.72124" lon="-0.25871">
        <ele>64</ele>
        <time>2020-03-12T11:56:59Z</time>
      </trkpt>
      <trkpt lat="44.72121" lon="-0.25883">
        <ele>63</ele>
        <time>2020-03-12T11:57:29Z</time>
      </trkpt>
      <trkpt lat="44.72115" lon="-0.26085">
        <ele>54</ele>
        <time>2020-03-12T11:59:33Z</time>
      </trkpt>
      <trkpt lat="44.72192" lon="-0.26091">
        <ele>53</ele>
        <time>2020-03-12T12:00:35Z</time>
      </trkpt>
      <trkpt lat="44.72202" lon="-0.26097">
        <ele>53</ele>
        <time>2020-03-12T12:00:45Z</time>
      </trkpt>
      <trkpt lat="44.72253" lon="-0.26156">
        <ele>51</ele>
        <time>2020-03-12T12:01:37Z</time>
      </trkpt>
      <trkpt lat="44.72292" lon="-0.26231">
        <ele>46</ele>
        <time>2020-03-12T12:02:27Z</time>
      </trkpt>
      <trkpt lat="44.72309" lon="-0.26245">
        <ele>46</ele>
        <time>2020-03-12T12:02:45Z</time>
      </trkpt>
      <trkpt lat="44.7235" lon="-0.2625">
        <ele>47</ele>
        <time>2020-03-12T12:03:18Z</time>
      </trkpt>
      <trkpt lat="44.72381" lon="-0.26271">
        <ele>46</ele>
        <time>2020-03-12T12:03:45Z</time>
      </trkpt>
      <trkpt lat="44.72385" lon="-0.26285">
        <ele>46</ele>
        <time>2020-03-12T12:03:54Z</time>
      </trkpt>
      <trkpt lat="44.72372" lon="-0.26317">
        <ele>45</ele>
        <time>2020-03-12T12:04:16Z</time>
      </trkpt>
      <trkpt lat="44.7235" lon="-0.26429">
        <ele>47</ele>
        <time>2020-03-12T12:05:13Z</time>
      </trkpt>
      <trkpt lat="44.72259" lon="-0.2642">
        <ele>49</ele>
        <time>2020-03-12T12:06:28Z</time>
      </trkpt>
      <trkpt lat="44.72263" lon="-0.26417">
        <ele>49</ele>
        <time>2020-03-12T12:06:48Z</time>
      </trkpt>
      <trkpt lat="44.72349" lon="-0.26429">
        <ele>47</ele>
        <time>2020-03-12T12:08:08Z</time>
      </trkpt>
      <trkpt lat="44.7235" lon="-0.26436">
        <ele>48</ele>
        <time>2020-03-12T12:08:23Z</time>
      </trkpt>
      <trkpt lat="44.72324" lon="-0.2659">
        <ele>56</ele>
        <time>2020-03-12T12:09:56Z</time>
      </trkpt>
      <trkpt lat="44.72317" lon="-0.26676">
        <ele>61</ele>
        <time>2020-03-12T12:10:46Z</time>
      </trkpt>
      <trkpt lat="44.72285" lon="-0.26834">
        <ele>68</ele>
        <time>2020-03-12T12:12:21Z</time>
      </trkpt>
      <trkpt lat="44.72259" lon="-0.26905">
        <ele>69</ele>
        <time>2020-03-12T12:13:02Z</time>
      </trkpt>
      <trkpt lat="44.72249" lon="-0.26907">
        <ele>69</ele>
        <time>2020-03-12T12:13:10Z</time>
      </trkpt>
      <trkpt lat="44.7221" lon="-0.26891">
        <ele>66</ele>
        <time>2020-03-12T12:13:43Z</time>
      </trkpt>
      <trkpt lat="44.72117" lon="-0.2684">
        <ele>61</ele>
        <time>2020-03-12T12:14:56Z</time>
      </trkpt>
      <trkpt lat="44.72033" lon="-0.26801">
        <ele>63</ele>
        <time>2020-03-12T12:15:58Z</time>
      </trkpt>
      <trkpt lat="44.72006" lon="-0.26801">
        <ele>65</ele>
        <time>2020-03-12T12:16:18Z</time>
      </trkpt>
      <trkpt lat="44.71976" lon="-0.26811">
        <ele>67</ele>
        <time>2020-03-12T12:16:41Z</time>
      </trkpt>
      <trkpt lat="44.71821" lon="-0.26888">
        <ele>70</ele>
        <time>2020-03-12T12:19:12Z</time>
      </trkpt>
      <trkpt lat="44.71817" lon="-0.26906">
        <ele>71</ele>
        <time>2020-03-12T12:19:25Z</time>
      </trkpt>
      <trkpt lat="44.71829" lon="-0.26946">
        <ele>72</ele>
        <time>2020-03-12T12:19:49Z</time>
      </trkpt>
      <trkpt lat="44.71858" lon="-0.27118">
        <ele>75</ele>
        <time>2020-03-12T12:21:25Z</time>
      </trkpt>
      <trkpt lat="44.71865" lon="-0.27188">
        <ele>76</ele>
        <time>2020-03-12T12:22:05Z</time>
      </trkpt>
      <trkpt lat="44.71854" lon="-0.27235">
        <ele>76</ele>
        <time>2020-03-12T12:22:33Z</time>
      </trkpt>
      <trkpt lat="44.71853" lon="-0.27264">
        <ele>77</ele>
        <time>2020-03-12T12:22:49Z</time>
      </trkpt>
      <trkpt lat="44.71888" lon="-0.27344">
        <ele>80</ele>
        <time>2020-03-12T12:23:42Z</time>
      </trkpt>
      <trkpt lat="44.71893" lon="-0.27369">
        <ele>82</ele>
        <time>2020-03-12T12:23:58Z</time>
      </trkpt>
      <trkpt lat="44.71911" lon="-0.2741">
        <ele>84</ele>
        <time>2020-03-12T12:24:28Z</time>
      </trkpt>
      <trkpt lat="44.71918" lon="-0.27446">
        <ele>85</ele>
        <time>2020-03-12T12:24:54Z</time>
      </trkpt>
      <trkpt lat="44.71919" lon="-0.27497">
        <ele>86</ele>
        <time>2020-03-12T12:25:27Z</time>
      </trkpt>
      <trkpt lat="44.71959" lon="-0.27693">
        <ele>92</ele>
        <time>2020-03-12T12:27:35Z</time>
      </trkpt>
      <trkpt lat="44.71963" lon="-0.27698">
        <ele>92</ele>
        <time>2020-03-12T12:27:40Z</time>
      </trkpt>
      <trkpt lat="44.72016" lon="-0.2766">
        <ele>88</ele>
        <time>2020-03-12T12:28:33Z</time>
      </trkpt>
      <trkpt lat="44.72077" lon="-0.27601">
        <ele>83</ele>
        <time>2020-03-12T12:29:30Z</time>
      </trkpt>
      <trkpt lat="44.7213" lon="-0.27494">
        <ele>81</ele>
        <time>2020-03-12T12:30:41Z</time>
      </trkpt>
      <trkpt lat="44.72155" lon="-0.27429">
        <ele>81</ele>
        <time>2020-03-12T12:31:21Z</time>
      </trkpt>
      <trkpt lat="44.7219" lon="-0.27357">
        <ele>81</ele>
        <time>2020-03-12T12:32:09Z</time>
      </trkpt>
      <trkpt lat="44.72248" lon="-0.27338">
        <ele>79</ele>
        <time>2020-03-12T12:33:08Z</time>
      </trkpt>
      <trkpt lat="44.72297" lon="-0.27337">
        <ele>77</ele>
        <time>2020-03-12T12:33:48Z</time>
      </trkpt>
      <trkpt lat="44.72335" lon="-0.27343">
        <ele>76</ele>
        <time>2020-03-12T12:34:18Z</time>
      </trkpt>
      <trkpt lat="44.72404" lon="-0.27365">
        <ele>73</ele>
        <time>2020-03-12T12:35:21Z</time>
      </trkpt>
      <trkpt lat="44.72418" lon="-0.27361">
        <ele>72</ele>
        <time>2020-03-12T12:35:37Z</time>
      </trkpt>
      <trkpt lat="44.72427" lon="-0.27367">
        <ele>71</ele>
        <time>2020-03-12T12:35:53Z</time>
      </trkpt>
      <trkpt lat="44.72519" lon="-0.2739">
        <ele>67</ele>
        <time>2020-03-12T12:37:15Z</time>
      </trkpt>
      <trkpt lat="44.72543" lon="-0.2739">
        <ele>66</ele>
        <time>2020-03-12T12:37:41Z</time>
      </trkpt>
      <trkpt lat="44.72603" lon="-0.27377">
        <ele>62</ele>
        <time>2020-03-12T12:38:37Z</time>
      </trkpt>
      <trkpt lat="44.72646" lon="-0.27382">
        <ele>59</ele>
        <time>2020-03-12T12:39:15Z</time>
      </trkpt>
      <trkpt lat="44.72676" lon="-0.27378">
        <ele>57</ele>
        <time>2020-03-12T12:39:42Z</time>
      </trkpt>
      <trkpt lat="44.72728" lon="-0.27386">
        <ele>56</ele>
        <time>2020-03-12T12:40:28Z</time>
      </trkpt>
      <trkpt lat="44.72764" lon="-0.27383">
        <ele>56</ele>
        <time>2020-03-12T12:40:57Z</time>
      </trkpt>
      <trkpt lat="44.72777" lon="-0.27389">
        <ele>57</ele>
        <time>2020-03-12T12:41:16Z</time>
      </trkpt>
      <trkpt lat="44.72784" lon="-0.27398">
        <ele>57</ele>
        <time>2020-03-12T12:41:36Z</time>
      </trkpt>
      <trkpt lat="44.72789" lon="-0.27397">
        <ele>57</ele>
        <time>2020-03-12T12:42:17Z</time>
      </trkpt>
      <trkpt lat="44.72787" lon="-0.27391">
        <ele>57</ele>
        <time>2020-03-12T12:42:43Z</time>
      </trkpt>
      <trkpt lat="44.72787" lon="-0.27397">
        <ele>57</ele>
        <time>2020-03-12T12:43:08Z</time>
      </trkpt>
      <trkpt lat="44.72791" lon="-0.27396">
        <ele>57</ele>
        <time>2020-03-12T12:44:07Z</time>
      </trkpt>
      <trkpt lat="44.72832" lon="-0.27415">
        <ele>59</ele>
        <time>2020-03-12T12:44:36Z</time>
      </trkpt>
      <trkpt lat="44.72843" lon="-0.27429">
        <ele>60</ele>
        <time>2020-03-12T12:44:46Z</time>
      </trkpt>
      <trkpt lat="44.73052" lon="-0.27586">
        <ele>68</ele>
        <time>2020-03-12T12:47:35Z</time>
      </trkpt>
      <trkpt lat="44.73064" lon="-0.27601">
        <ele>69</ele>
        <time>2020-03-12T12:47:47Z</time>
      </trkpt>
      <trkpt lat="44.73135" lon="-0.27644">
        <ele>74</ele>
        <time>2020-03-12T12:48:40Z</time>
      </trkpt>
      <trkpt lat="44.73174" lon="-0.27675">
        <ele>77</ele>
        <time>2020-03-12T12:49:14Z</time>
      </trkpt>
      <trkpt lat="44.73178" lon="-0.27675">
        <ele>78</ele>
        <time>2020-03-12T12:49:22Z</time>
      </trkpt>
      <trkpt lat="44.73204" lon="-0.2763">
        <ele>78</ele>
        <time>2020-03-12T12:50:09Z</time>
      </trkpt>
      <trkpt lat="44.73209" lon="-0.27629">
        <ele>78</ele>
        <time>2020-03-12T12:50:20Z</time>
      </trkpt>
      <trkpt lat="44.73217" lon="-0.27603">
        <ele>78</ele>
        <time>2020-03-12T12:50:41Z</time>
      </trkpt>
      <trkpt lat="44.73236" lon="-0.27568">
        <ele>77</ele>
        <time>2020-03-12T12:51:04Z</time>
      </trkpt>
      <trkpt lat="44.73248" lon="-0.27527">
        <ele>76</ele>
        <time>2020-03-12T12:51:34Z</time>
      </trkpt>
      <trkpt lat="44.73253" lon="-0.2746">
        <ele>75</ele>
        <time>2020-03-12T12:52:09Z</time>
      </trkpt>
      <trkpt lat="44.73233" lon="-0.27258">
        <ele>71</ele>
        <time>2020-03-12T12:53:57Z</time>
      </trkpt>
      <trkpt lat="44.73216" lon="-0.27135">
        <ele>70</ele>
        <time>2020-03-12T12:55:02Z</time>
      </trkpt>
      <trkpt lat="44.73216" lon="-0.27083">
        <ele>70</ele>
        <time>2020-03-12T12:55:29Z</time>
      </trkpt>
      <trkpt lat="44.73229" lon="-0.2702">
        <ele>67</ele>
        <time>2020-03-12T12:56:03Z</time>
      </trkpt>
      <trkpt lat="44.73251" lon="-0.26941">
        <ele>64</ele>
        <time>2020-03-12T12:56:47Z</time>
      </trkpt>
      <trkpt lat="44.73266" lon="-0.26902">
        <ele>62</ele>
        <time>2020-03-12T12:57:09Z</time>
      </trkpt>
      <trkpt lat="44.7337" lon="-0.26549">
        <ele>58</ele>
        <time>2020-03-12T13:00:41Z</time>
      </trkpt>
      <trkpt lat="44.73389" lon="-0.2651">
        <ele>60</ele>
        <time>2020-03-12T13:01:06Z</time>
      </trkpt>
      <trkpt lat="44.73391" lon="-0.26482">
        <ele>61</ele>
        <time>2020-03-12T13:01:24Z</time>
      </trkpt>
      <trkpt lat="44.73408" lon="-0.26427">
        <ele>64</ele>
        <time>2020-03-12T13:01:57Z</time>
      </trkpt>
      <trkpt lat="44.73418" lon="-0.26326">
        <ele>65</ele>
        <time>2020-03-12T13:03:08Z</time>
      </trkpt>
      <trkpt lat="44.73413" lon="-0.26326">
        <ele>64</ele>
        <time>2020-03-12T13:03:23Z</time>
      </trkpt>
      <trkpt lat="44.73418" lon="-0.26283">
        <ele>62</ele>
        <time>2020-03-12T13:03:52Z</time>
      </trkpt>
      <trkpt lat="44.73446" lon="-0.26204">
        <ele>58</ele>
        <time>2020-03-12T13:04:32Z</time>
      </trkpt>
      <trkpt lat="44.73445" lon="-0.26156">
        <ele>56</ele>
        <time>2020-03-12T13:04:58Z</time>
      </trkpt>
    </trkseg>
  </trk>
</gpx>